createdAt,value
2018-10-16T00:00:58.550Z,95133.97
2018-10-16T00:03:27.003Z,95130.31
2018-10-16T00:05:55.493Z,95129.77
2018-10-16T00:08:23.913Z,95140.16
2018-10-16T00:10:53.192Z,95138.13
2018-10-16T00:13:21.645Z,95141.98
2018-10-16T00:15:50.082Z,95142.49
2018-10-16T00:18:18.488Z,95142.06
2018-10-16T00:20:46.897Z,95141.24
2018-10-16T00:23:15.391Z,95140.70
2018-10-16T00:25:43.871Z,95145.66
2018-10-16T00:28:12.416Z,95143.84
2018-10-16T00:30:41.793Z,95147.08
2018-10-16T00:33:10.261Z,95147.68
2018-10-16T00:35:38.760Z,95138.89
2018-10-16T00:38:07.211Z,95148.48
2018-10-16T00:40:35.862Z,95149.02
2018-10-16T00:43:04.408Z,95144.79
2018-10-16T00:45:32.845Z,95143.77
2018-10-16T00:48:01.247Z,95145.59
2018-10-16T00:50:29.680Z,95146.14
2018-10-16T00:52:58.116Z,95152.38
2018-10-16T00:55:26.597Z,95154.23
2018-10-16T00:57:55.090Z,95147.25
2018-10-16T01:00:23.557Z,95156.34
2018-10-16T01:02:52.077Z,95152.34
2018-10-16T01:05:20.501Z,95157.83
2018-10-16T01:07:49.173Z,95155.98
2018-10-16T01:10:17.638Z,95153.97
2018-10-16T01:12:46.053Z,95150.61
2018-10-16T01:15:14.482Z,95156.60
2018-10-16T01:17:42.924Z,95156.89
2018-10-16T01:20:14.481Z,95162.33
2018-10-16T01:22:43.505Z,95158.41
2018-10-16T01:25:12.804Z,95161.81
2018-10-16T01:27:41.437Z,95160.78
2018-10-16T01:30:09.993Z,95157.97
2018-10-16T01:32:38.924Z,95157.17
2018-10-16T01:35:08.775Z,95158.48
2018-10-16T01:37:37.284Z,95152.77
2018-10-16T01:40:07.253Z,95158.96
2018-10-16T01:42:35.829Z,95160.05
2018-10-16T01:45:04.451Z,95162.60
2018-10-16T01:47:33.161Z,95158.71
2018-10-16T01:50:01.777Z,95151.39
2018-10-16T01:52:30.378Z,95150.88
2018-10-16T01:54:58.912Z,95151.67
2018-10-16T01:57:27.413Z,95152.63
2018-10-16T01:59:55.971Z,95157.31
2018-10-16T02:02:24.537Z,95152.31
2018-10-16T02:04:53.135Z,95152.95
2018-10-16T02:07:21.736Z,95157.30
2018-10-16T02:09:50.658Z,95156.80
2018-10-16T02:12:19.199Z,95158.92
2018-10-16T02:14:47.814Z,95158.63
2018-10-16T02:17:16.357Z,95161.69
2018-10-16T02:19:44.900Z,95162.77
2018-10-16T02:22:13.397Z,95164.08
2018-10-16T02:24:42.070Z,95168.30
2018-10-16T02:27:10.685Z,95167.82
2018-10-16T02:29:39.264Z,95170.61
2018-10-16T02:32:07.835Z,95172.25
2018-10-16T02:34:36.378Z,95172.41
2018-10-16T02:37:05.261Z,95171.13
2018-10-16T02:39:33.830Z,95173.70
2018-10-16T02:42:02.434Z,95170.59
2018-10-16T02:44:30.953Z,95173.97
2018-10-16T02:46:59.531Z,95176.34
2018-10-16T02:49:27.955Z,95177.13
2018-10-16T02:51:56.401Z,95180.45
2018-10-16T02:54:24.923Z,95176.33
2018-10-16T02:56:53.869Z,95175.75
2018-10-16T02:59:22.400Z,95181.44
2018-10-16T03:01:50.906Z,95186.43
2018-10-16T03:04:19.507Z,95177.83
2018-10-16T03:06:48.044Z,95180.94
2018-10-16T03:09:16.653Z,95187.45
2018-10-16T03:11:45.140Z,95178.58
2018-10-16T03:14:13.887Z,95180.38
2018-10-16T03:16:42.552Z,95184.29
2018-10-16T03:19:11.138Z,95182.73
2018-10-16T03:21:39.851Z,95184.05
2018-10-16T03:24:09.173Z,95188.08
2018-10-16T03:26:38.118Z,95181.71
2018-10-16T03:29:07.124Z,95189.47
2018-10-16T03:31:35.760Z,95187.17
2018-10-16T03:34:04.487Z,95186.41
2018-10-16T03:36:33.045Z,95182.77
2018-10-16T03:39:01.708Z,95190.99
2018-10-16T03:41:30.339Z,95184.39
2018-10-16T03:44:01.282Z,95189.08
2018-10-16T03:46:30.252Z,95191.89
2018-10-16T03:48:58.840Z,95187.53
2018-10-16T03:51:27.399Z,95190.91
2018-10-16T03:53:56.566Z,95191.20
2018-10-16T03:56:25.881Z,95194.09
2018-10-16T03:58:54.448Z,95194.72
2018-10-16T04:01:24.296Z,95199.94
2018-10-16T04:03:52.904Z,95194.77
2018-10-16T04:06:21.903Z,95201.80
2018-10-16T04:08:51.258Z,95198.04
2018-10-16T04:11:20.040Z,95201.88
2018-10-16T04:13:49.004Z,95205.30
2018-10-16T04:16:18.080Z,95196.16
2018-10-16T04:18:46.737Z,95201.84
2018-10-16T04:21:15.369Z,95207.87
2018-10-16T04:23:44.348Z,95209.41
2018-10-16T04:26:13.317Z,95207.25
2018-10-16T04:28:41.796Z,95212.92
2018-10-16T04:31:12.404Z,95211.75
2018-10-16T04:33:41.149Z,95215.61
2018-10-16T04:36:09.728Z,95210.27
2018-10-16T04:38:38.435Z,95219.16
2018-10-16T04:41:06.924Z,95216.59
2018-10-16T04:43:35.472Z,95216.59
2018-10-16T04:46:03.885Z,95211.91
2018-10-16T04:48:32.399Z,95211.38
2018-10-16T04:51:00.901Z,95213.55
2018-10-16T04:53:29.518Z,95213.01
2018-10-16T04:55:58.110Z,95213.25
2018-10-16T04:58:26.941Z,95212.88
2018-10-16T05:00:55.575Z,95213.37
2018-10-16T05:03:25.113Z,95220.42
2018-10-16T05:05:55.298Z,95218.27
2018-10-16T05:08:23.857Z,95209.00
2018-10-16T05:10:52.483Z,95209.24
2018-10-16T05:13:21.149Z,95213.00
2018-10-16T05:15:49.611Z,95214.55
2018-10-16T05:18:18.113Z,95219.77
2018-10-16T05:20:46.606Z,95214.78
2018-10-16T05:23:15.053Z,95216.11
2018-10-16T05:25:43.652Z,95224.15
2018-10-16T05:28:12.136Z,95221.76
2018-10-16T05:30:40.749Z,95225.77
2018-10-16T05:33:09.275Z,95230.70
2018-10-16T05:35:37.757Z,95235.41
2018-10-16T05:38:06.379Z,95230.97
2018-10-16T05:40:34.898Z,95238.63
2018-10-16T05:43:03.651Z,95237.47
2018-10-16T05:45:33.952Z,95235.41
2018-10-16T05:48:02.438Z,95236.00
2018-10-16T05:50:31.904Z,95242.45
2018-10-16T05:53:00.745Z,95239.36
2018-10-16T05:55:29.353Z,95245.42
2018-10-16T05:57:57.945Z,95249.55
2018-10-16T06:00:36.333Z,95247.25
2018-10-16T06:03:05.078Z,95250.31
2018-10-16T06:05:33.782Z,95255.67
2018-10-16T06:08:02.482Z,95258.00
2018-10-16T06:10:31.460Z,95258.67
2018-10-16T06:13:00.073Z,95257.37
2018-10-16T06:15:28.618Z,95264.06
2018-10-16T06:17:57.213Z,95265.77
2018-10-16T06:20:25.758Z,95264.63
2018-10-16T06:22:54.263Z,95271.77
2018-10-16T06:25:22.820Z,95284.30
2018-10-16T06:27:51.464Z,95275.44
2018-10-16T06:30:20.987Z,95278.47
2018-10-16T06:32:49.701Z,95279.91
2018-10-16T06:35:18.488Z,95281.84
2018-10-16T06:37:48.528Z,95281.61
2018-10-16T06:40:18.355Z,95276.36
2018-10-16T06:42:47.051Z,95280.94
2018-10-16T06:45:16.527Z,95280.85
2018-10-16T06:47:46.201Z,95276.92
2018-10-16T06:50:15.907Z,95286.14
2018-10-16T06:52:45.318Z,95279.45
2018-10-16T06:55:14.228Z,95276.10
2018-10-16T06:57:42.807Z,95281.08
2018-10-16T07:00:11.479Z,95278.29
2018-10-16T07:02:40.157Z,95279.30
2018-10-16T07:05:08.965Z,95281.16
2018-10-16T07:07:38.538Z,95286.36
2018-10-16T07:10:08.860Z,95288.45
2018-10-16T07:12:37.603Z,95283.75
2018-10-16T07:15:07.735Z,95291.05
2018-10-16T07:17:36.235Z,95289.70
2018-10-16T07:20:05.631Z,95290.59
2018-10-16T07:22:34.214Z,95290.23
2018-10-16T07:25:02.854Z,95293.92
2018-10-16T07:27:31.542Z,95302.28
2018-10-16T07:30:00.212Z,95299.30
2018-10-16T07:32:28.822Z,95298.39
2018-10-16T07:34:57.399Z,95293.59
2018-10-16T07:37:26.032Z,95294.81
2018-10-16T07:39:54.568Z,95297.71
2018-10-16T07:42:23.065Z,95299.62
2018-10-16T07:44:51.629Z,95299.81
2018-10-16T07:47:20.139Z,95301.02
2018-10-16T07:49:48.674Z,95301.44
2018-10-16T07:52:17.251Z,95305.69
2018-10-16T07:54:45.758Z,95298.81
2018-10-16T07:57:14.511Z,95315.44
2018-10-16T07:59:43.161Z,95311.64
2018-10-16T08:02:11.875Z,95306.27
2018-10-16T08:04:40.397Z,95308.81
2018-10-16T08:07:10.013Z,95308.73
2018-10-16T08:09:39.722Z,95307.83
2018-10-16T08:12:10.036Z,95314.91
2018-10-16T08:14:39.089Z,95322.20
2018-10-16T08:17:07.940Z,95314.41
2018-10-16T08:19:36.602Z,95315.72
2018-10-16T08:22:05.171Z,95321.17
2018-10-16T08:24:33.702Z,95320.63
2018-10-16T08:27:03.181Z,95323.72
2018-10-16T08:29:31.728Z,95322.86
2018-10-16T08:32:01.261Z,95322.87
2018-10-16T08:34:29.766Z,95322.77
2018-10-16T08:36:58.473Z,95325.63
2018-10-16T08:39:29.593Z,95320.47
2018-10-16T08:43:21.357Z,95323.80
2018-10-16T08:46:01.253Z,95326.66
2018-10-16T08:48:41.042Z,95328.19
2018-10-16T08:51:20.670Z,95326.22
2018-10-16T08:53:49.167Z,95323.39
2018-10-16T08:56:17.784Z,95332.25
2018-10-16T08:58:46.343Z,95325.95
2018-10-16T09:01:14.962Z,95333.23
2018-10-16T09:03:43.551Z,95333.89
2018-10-16T09:06:12.133Z,95331.69
2018-10-16T09:08:40.640Z,95341.72
2018-10-16T09:11:09.246Z,95336.34
2018-10-16T09:13:37.768Z,95344.93
2018-10-16T09:16:06.314Z,95342.16
2018-10-16T09:18:34.986Z,95342.58
2018-10-16T09:21:03.504Z,95343.81
2018-10-16T09:23:32.017Z,95345.51
2018-10-16T09:26:00.537Z,95347.82
2018-10-16T09:28:29.066Z,95356.90
2018-10-16T09:30:57.851Z,95349.13
2018-10-16T09:33:26.535Z,95351.39
2018-10-16T09:35:55.028Z,95348.16
2018-10-16T09:38:23.512Z,95347.70
2018-10-16T09:40:52.104Z,95351.62
2018-10-16T09:43:20.614Z,95350.40
2018-10-16T09:45:49.086Z,95351.89
2018-10-16T09:48:17.560Z,95349.84
2018-10-16T09:50:46.049Z,95355.19
2018-10-16T09:53:14.509Z,95350.13
2018-10-16T09:55:43.033Z,95358.25
2018-10-16T09:58:11.521Z,95354.98
2018-10-16T10:00:45.357Z,95357.50
2018-10-16T10:03:13.749Z,95354.89
2018-10-16T10:05:42.275Z,95351.82
2018-10-16T10:08:10.758Z,95350.16
2018-10-16T10:10:39.369Z,95353.77
2018-10-16T10:13:07.850Z,95352.06
2018-10-16T10:15:36.395Z,95351.10
2018-10-16T10:18:05.438Z,95361.25
2018-10-16T10:20:33.975Z,95349.71
2018-10-16T10:23:02.567Z,95349.24
2018-10-16T10:25:31.057Z,95354.41
2018-10-16T10:27:59.539Z,95350.06
2018-10-16T10:30:28.217Z,95351.30
2018-10-16T10:32:57.050Z,95344.07
2018-10-16T10:35:25.749Z,95343.75
2018-10-16T10:37:54.261Z,95335.74
2018-10-16T10:40:22.857Z,95337.73
2018-10-16T10:42:51.532Z,95333.67
2018-10-16T10:45:20.214Z,95329.91
2018-10-16T10:47:48.730Z,95332.02
2018-10-16T10:50:17.523Z,95325.38
2018-10-16T10:52:45.886Z,95325.77
2018-10-16T10:55:14.342Z,95334.79
2018-10-16T10:57:43.387Z,95330.76
2018-10-16T11:00:21.894Z,95336.64
2018-10-16T11:02:50.481Z,95335.57
2018-10-16T11:05:19.012Z,95341.98
2018-10-16T11:07:47.502Z,95345.95
2018-10-16T11:10:16.072Z,95345.66
2018-10-16T11:12:45.002Z,95343.75
2018-10-16T11:15:13.613Z,95349.59
2018-10-16T11:17:42.226Z,95346.73
2018-10-16T11:20:12.659Z,95344.81
2018-10-16T11:22:41.249Z,95347.05
2018-10-16T11:25:11.335Z,95348.40
2018-10-16T11:27:39.911Z,95341.77
2018-10-16T11:30:11.994Z,95344.37
2018-10-16T11:32:40.893Z,95347.97
2018-10-16T11:35:10.547Z,95347.88
2018-10-16T11:37:39.453Z,95354.41
2018-10-16T11:40:08.484Z,95356.72
2018-10-16T11:42:36.983Z,95360.38
2018-10-16T11:45:06.570Z,95357.90
2018-10-16T11:47:35.012Z,95355.44
2018-10-16T11:50:03.580Z,95357.14
2018-10-16T11:52:31.985Z,95360.69
2018-10-16T11:55:00.480Z,95364.66
2018-10-16T11:57:28.946Z,95358.59
2018-10-16T11:59:57.536Z,95356.20
2018-10-16T12:02:26.042Z,95359.70
2018-10-16T12:04:54.444Z,95352.03
2018-10-16T12:07:22.928Z,95362.56
2018-10-16T12:09:51.439Z,95366.36
2018-10-16T12:12:19.978Z,95366.05
2018-10-16T12:14:48.401Z,95366.61
2018-10-16T12:17:20.753Z,95363.45
2018-10-16T12:19:52.461Z,95365.09
2018-10-16T12:22:20.892Z,95358.44
2018-10-16T12:24:49.430Z,95360.72
2018-10-16T12:27:17.882Z,95363.73
2018-10-16T12:29:46.440Z,95360.34
2018-10-16T12:32:15.204Z,95363.08
2018-10-16T12:34:43.640Z,95360.98
2018-10-16T12:37:12.211Z,95351.74
2018-10-16T12:39:40.704Z,95345.48
2018-10-16T12:42:09.249Z,95345.67
2018-10-16T12:44:38.538Z,95341.12
2018-10-16T12:47:07.117Z,95348.70
2018-10-16T12:49:35.727Z,95354.84
2018-10-16T12:52:04.180Z,95361.45
2018-10-16T12:54:32.644Z,95359.44
2018-10-16T12:57:01.127Z,95354.88
2018-10-16T12:59:29.602Z,95356.20
2018-10-16T13:01:58.111Z,95359.84
2018-10-16T13:04:26.524Z,95354.66
2018-10-16T13:06:54.959Z,95358.22
2018-10-16T13:09:23.461Z,95357.21
2018-10-16T13:11:51.992Z,95360.88
2018-10-16T13:14:20.452Z,95361.24
2018-10-16T13:16:49.192Z,95357.68
2018-10-16T13:19:17.656Z,95362.75
2018-10-16T13:21:46.150Z,95365.19
2018-10-16T13:24:14.720Z,95364.22
2018-10-16T13:26:43.249Z,95366.78
2018-10-16T13:29:11.799Z,95363.25
2018-10-16T13:31:40.302Z,95366.05
2018-10-16T13:34:08.896Z,95365.59
2018-10-16T13:36:37.379Z,95357.31
2018-10-16T13:39:07.607Z,95369.19
2018-10-16T13:41:36.117Z,95369.01
2018-10-16T13:44:04.604Z,95370.00
2018-10-16T13:46:33.113Z,95368.55
2018-10-16T13:49:01.632Z,95372.38
2018-10-16T13:51:30.236Z,95368.13
2018-10-16T13:53:58.833Z,95378.00
2018-10-16T13:56:28.291Z,95376.27
2018-10-16T13:58:56.756Z,95375.24
2018-10-16T14:01:25.380Z,95372.58
2018-10-16T14:03:54.040Z,95381.36
2018-10-16T14:06:22.531Z,95381.36
2018-10-16T14:08:51.113Z,95383.03
2018-10-16T14:11:19.563Z,95385.17
2018-10-16T14:13:48.160Z,95383.63
2018-10-16T14:16:16.690Z,95385.86
2018-10-16T14:18:45.164Z,95383.67
2018-10-16T14:21:13.700Z,95386.91
2018-10-16T14:23:42.255Z,95392.25
2018-10-16T14:26:10.822Z,95391.03
2018-10-16T14:28:39.392Z,95394.56
2018-10-16T14:31:07.995Z,95389.30
2018-10-16T14:33:36.625Z,95388.30
2018-10-16T14:36:05.319Z,95386.85
2018-10-16T14:38:33.947Z,95385.80
2018-10-16T14:41:03.421Z,95387.33
2018-10-16T14:43:32.148Z,95392.09
2018-10-16T14:46:01.182Z,95392.08
2018-10-16T14:48:29.684Z,95388.28
2018-10-16T14:50:58.124Z,95390.82
2018-10-16T14:53:26.572Z,95395.95
2018-10-16T14:55:55.022Z,95388.16
2018-10-16T14:58:23.491Z,95402.43
2018-10-16T15:00:51.973Z,95397.56
2018-10-16T15:03:20.421Z,95393.50
2018-10-16T15:05:48.860Z,95389.35
2018-10-16T15:08:17.520Z,95391.59
2018-10-16T15:10:45.967Z,95385.75
2018-10-16T15:13:14.337Z,95378.80
2018-10-16T15:15:42.676Z,95380.76
2018-10-16T15:18:11.076Z,95384.95
2018-10-16T15:20:39.501Z,95380.71
2018-10-16T15:23:07.927Z,95385.97
2018-10-16T15:25:36.368Z,95387.08
2018-10-16T15:28:04.955Z,95384.06
2018-10-16T15:30:33.420Z,95381.32
2018-10-16T15:33:01.764Z,95376.68
2018-10-16T15:35:30.162Z,95384.15
2018-10-16T15:37:58.570Z,95382.86
2018-10-16T15:40:26.930Z,95378.46
2018-10-16T15:42:55.288Z,95383.60
2018-10-16T15:45:23.699Z,95383.41
2018-10-16T15:47:52.160Z,95380.30
2018-10-16T15:50:20.651Z,95375.08
2018-10-16T15:52:49.167Z,95387.70
2018-10-16T15:55:17.576Z,95387.19
2018-10-16T15:57:46.038Z,95389.65
2018-10-16T16:00:15.648Z,95391.41
2018-10-16T16:02:44.058Z,95389.50
2018-10-16T16:05:12.887Z,95385.66
2018-10-16T16:07:41.537Z,95388.18
2018-10-16T16:10:11.965Z,95386.73
2018-10-16T16:12:40.378Z,95386.23
2018-10-16T16:15:10.504Z,95396.20
2018-10-16T16:17:38.945Z,95397.45
2018-10-16T16:20:08.733Z,95403.20
2018-10-16T16:22:37.080Z,95406.39
2018-10-16T16:25:06.789Z,95402.58
2018-10-16T16:27:35.448Z,95401.12
2018-10-16T16:30:04.397Z,95409.05
2018-10-16T16:32:32.884Z,95407.19
2018-10-16T16:35:01.376Z,95407.48
2018-10-16T16:37:29.913Z,95406.14
2018-10-16T16:39:58.403Z,95403.47
2018-10-16T16:42:26.802Z,95405.36
2018-10-16T16:44:55.384Z,95404.97
2018-10-16T16:47:23.809Z,95409.38
2018-10-16T16:49:52.350Z,95407.83
2018-10-16T16:52:20.888Z,95408.44
2018-10-16T16:54:49.260Z,95409.44
2018-10-16T16:57:17.805Z,95409.44
2018-10-16T16:59:46.564Z,95416.74
2018-10-16T17:02:15.034Z,95415.84
2018-10-16T17:04:43.454Z,95416.73
2018-10-16T17:07:11.880Z,95413.02
2018-10-16T17:09:40.404Z,95412.80
2018-10-16T17:12:08.787Z,95406.42
2018-10-16T17:14:37.161Z,95413.52
2018-10-16T17:17:05.684Z,95407.06
2018-10-16T17:19:34.056Z,95403.23
2018-10-16T17:22:02.516Z,95408.17
2018-10-16T17:24:30.846Z,95418.84
2018-10-16T17:26:59.291Z,95412.08
2018-10-16T17:29:27.766Z,95417.45
2018-10-16T17:31:56.282Z,95422.66
2018-10-16T17:34:24.704Z,95424.78
2018-10-16T17:36:53.105Z,95426.71
2018-10-16T17:39:21.591Z,95425.23
2018-10-16T17:41:50.020Z,95429.95
2018-10-16T17:44:18.568Z,95430.77
2018-10-16T17:46:47.107Z,95432.72
2018-10-16T17:49:15.540Z,95429.58
2018-10-16T17:51:43.933Z,95431.78
2018-10-16T17:54:12.385Z,95427.05
2018-10-16T17:56:40.852Z,95426.02
2018-10-16T17:59:09.276Z,95424.56
2018-10-16T18:01:37.696Z,95423.93
2018-10-16T18:04:06.235Z,95433.41
2018-10-16T18:06:34.615Z,95441.11
2018-10-16T18:09:03.066Z,95430.13
2018-10-16T18:11:31.422Z,95435.58
2018-10-16T18:13:59.816Z,95430.81
2018-10-16T18:16:28.276Z,95431.53
2018-10-16T18:18:56.664Z,95427.33
2018-10-16T18:21:25.157Z,95435.80
2018-10-16T18:23:53.568Z,95436.83
2018-10-16T18:26:21.921Z,95440.92
2018-10-16T18:28:50.329Z,95434.06
2018-10-16T18:31:18.736Z,95425.23
2018-10-16T18:33:47.118Z,95429.43
2018-10-16T18:36:15.524Z,95430.22
2018-10-16T18:38:43.948Z,95423.22
2018-10-16T18:41:12.385Z,95418.81
2018-10-16T18:43:40.793Z,95422.44
2018-10-16T18:46:09.399Z,95418.73
2018-10-16T18:48:37.817Z,95420.24
2018-10-16T18:51:06.257Z,95421.70
2018-10-16T18:53:34.621Z,95417.70
2018-10-16T18:56:02.979Z,95416.35
2018-10-16T18:58:31.420Z,95421.00
2018-10-16T19:00:59.864Z,95423.38
2018-10-16T19:03:28.349Z,95418.27
2018-10-16T19:05:56.788Z,95419.08
2018-10-16T19:08:25.120Z,95418.98
2018-10-16T19:10:53.577Z,95422.98
2018-10-16T19:13:22.166Z,95419.18
2018-10-16T19:15:50.492Z,95422.77
2018-10-16T19:18:18.839Z,95417.83
2018-10-16T19:20:47.221Z,95420.41
2018-10-16T19:23:15.609Z,95420.94
2018-10-16T19:25:44.016Z,95419.98
2018-10-16T19:28:12.430Z,95426.63
2018-10-16T19:30:40.957Z,95422.40
2018-10-16T19:33:09.501Z,95423.02
2018-10-16T19:35:38.084Z,95426.27
2018-10-16T19:38:07.207Z,95434.39
2018-10-16T19:40:35.676Z,95429.53
2018-10-16T19:43:04.180Z,95437.95
2018-10-16T19:45:32.685Z,95435.70
2018-10-16T19:48:02.405Z,95440.67
2018-10-16T19:50:31.073Z,95434.77
2018-10-16T19:53:07.992Z,95439.59
2018-10-16T19:55:36.656Z,95441.85
2018-10-16T19:58:05.225Z,95440.16
2018-10-16T20:00:33.620Z,95440.78
2018-10-16T20:03:02.031Z,95446.55
2018-10-16T20:05:30.370Z,95450.55
2018-10-16T20:07:58.756Z,95454.24
2018-10-16T20:10:27.145Z,95451.09
2018-10-16T20:12:55.578Z,95453.27
2018-10-16T20:15:24.901Z,95455.05
2018-10-16T20:17:53.330Z,95457.89
2018-10-16T20:20:21.733Z,95457.12
2018-10-16T20:22:50.161Z,95459.83
2018-10-16T20:25:18.655Z,95463.33
2018-10-16T20:27:47.028Z,95460.78
2018-10-16T20:30:15.423Z,95464.14
2018-10-16T20:32:43.928Z,95463.17
2018-10-16T20:35:12.300Z,95456.05
2018-10-16T20:37:40.737Z,95461.75
2018-10-16T20:40:09.219Z,95463.34
2018-10-16T20:42:38.057Z,95457.08
2018-10-16T20:45:06.652Z,95455.78
2018-10-16T20:47:35.092Z,95455.50
2018-10-16T20:50:03.413Z,95452.92
2018-10-16T20:52:31.861Z,95453.25
2018-10-16T20:55:00.246Z,95450.63
2018-10-16T20:57:28.746Z,95445.94
2018-10-16T20:59:57.440Z,95448.31
2018-10-16T21:02:25.852Z,95439.86
2018-10-16T21:04:54.299Z,95437.91
2018-10-16T21:07:22.604Z,95444.68
2018-10-16T21:09:51.033Z,95439.16
2018-10-16T21:12:19.436Z,95439.27
2018-10-16T21:14:47.744Z,95437.13
2018-10-16T21:17:16.039Z,95439.35
2018-10-16T21:19:44.379Z,95443.41
2018-10-16T21:22:12.676Z,95444.70
2018-10-16T21:24:41.002Z,95444.73
2018-10-16T21:27:10.607Z,95438.81
2018-10-16T21:29:38.930Z,95445.80
2018-10-16T21:32:07.896Z,95439.27
2018-10-16T21:34:36.210Z,95438.56
2018-10-16T21:37:04.657Z,95439.59
2018-10-16T21:39:32.939Z,95431.27
2018-10-16T21:42:01.253Z,95434.13
2018-10-16T21:44:30.278Z,95435.02
2018-10-16T21:46:58.724Z,95428.13
2018-10-16T21:49:27.034Z,95432.53
2018-10-16T21:51:55.356Z,95436.13
2018-10-16T21:54:23.660Z,95433.27
2018-10-16T21:56:52.067Z,95440.41
2018-10-16T21:59:20.536Z,95439.74
2018-10-16T22:01:54.175Z,95436.75
2018-10-16T22:04:22.547Z,95437.52
2018-10-16T22:06:50.922Z,95441.28
2018-10-16T22:09:19.267Z,95436.17
2018-10-16T22:11:47.615Z,95437.36
2018-10-16T22:14:15.979Z,95438.47
2018-10-16T22:16:44.301Z,95443.16
2018-10-16T22:19:12.742Z,95432.30
2018-10-16T22:21:41.032Z,95437.80
2018-10-16T22:24:09.376Z,95435.41
2018-10-16T22:26:37.677Z,95434.97
2018-10-16T22:29:06.013Z,95433.41
2018-10-16T22:31:34.304Z,95432.88
2018-10-16T22:34:02.629Z,95434.23
2018-10-16T22:36:30.997Z,95432.63
2018-10-16T22:38:59.343Z,95435.50
2018-10-16T22:41:27.777Z,95425.58
2018-10-16T22:43:56.065Z,95432.45
2018-10-16T22:46:24.637Z,95420.95
2018-10-16T22:48:53.013Z,95424.14
2018-10-16T22:51:21.286Z,95420.22
2018-10-16T22:53:49.597Z,95421.80
2018-10-16T22:56:17.920Z,95415.03
2018-10-16T22:58:46.247Z,95416.59
2018-10-16T23:01:14.700Z,95415.08
2018-10-16T23:03:43.076Z,95411.67
2018-10-16T23:06:11.410Z,95414.25
2018-10-16T23:08:39.793Z,95411.39
2018-10-16T23:11:08.126Z,95407.50
2018-10-16T23:13:36.400Z,95414.27
2018-10-16T23:16:04.700Z,95406.44
2018-10-16T23:18:33.039Z,95404.63
2018-10-16T23:21:01.468Z,95407.77
2018-10-16T23:23:30.131Z,95405.65
2018-10-16T23:25:58.562Z,95403.33
2018-10-16T23:28:26.980Z,95403.85
2018-10-16T23:30:55.431Z,95399.15
2018-10-16T23:33:23.832Z,95400.98
2018-10-16T23:35:52.244Z,95395.77
2018-10-16T23:38:20.719Z,95391.83
2018-10-16T23:40:49.221Z,95395.24
2018-10-16T23:43:17.811Z,95387.66
2018-10-16T23:45:46.201Z,95389.50
2018-10-16T23:48:14.660Z,95389.00
2018-10-16T23:50:43.130Z,95382.48
2018-10-16T23:53:11.577Z,95386.11
2018-10-16T23:55:40.043Z,95382.73
2018-10-16T23:58:08.438Z,95390.02
